createdAt,value
2022-11-18T00:01:17.642Z,97941.88
2022-11-18T00:03:45.600Z,97938.47
2022-11-18T00:06:15.381Z,97926.53
2022-11-18T00:08:42.834Z,97913.94
2022-11-18T00:11:13.104Z,97892.28
2022-11-18T00:13:58.272Z,97919.66
2022-11-18T00:16:24.917Z,97934.84
2022-11-18T00:18:51.776Z,97926.56
2022-11-18T00:21:18.395Z,97926.88
2022-11-18T00:23:45.097Z,97914.16
2022-11-18T00:26:13.866Z,97931.22
2022-11-18T00:28:41.438Z,97884.44
2022-11-18T00:31:13.396Z,97927.56
2022-11-18T00:33:40.675Z,97924.16
2022-11-18T00:36:10.552Z,97928.81
2022-11-18T00:38:37.931Z,97903.34
2022-11-18T00:41:10.426Z,97941.81
2022-11-18T00:43:37.683Z,97941.97
2022-11-18T00:46:05.875Z,97944.59
2022-11-18T00:48:32.948Z,97927.06
2022-11-18T00:51:08.858Z,97946.94
2022-11-18T00:53:35.538Z,97950.88
2022-11-18T00:56:02.195Z,97918.66
2022-11-18T00:58:30.124Z,97874.91
2022-11-18T01:00:56.878Z,97956.31
2022-11-18T01:03:25.547Z,97949.72
2022-11-18T01:05:52.292Z,97935.75
2022-11-18T01:08:19.478Z,97939.28
2022-11-18T01:10:48.247Z,97877.47
2022-11-18T01:13:21.185Z,97948.78
2022-11-18T01:15:58.365Z,97946.25
2022-11-18T01:18:27.799Z,97946.00
2022-11-18T01:20:59.917Z,97931.78
2022-11-18T01:23:26.750Z,97948.50
2022-11-18T01:25:53.537Z,97947.56
2022-11-18T01:28:23.648Z,97964.75
2022-11-18T01:30:51.558Z,97959.59
2022-11-18T01:33:18.409Z,97971.91
2022-11-18T01:35:45.151Z,97953.75
2022-11-18T01:38:14.360Z,97958.91
2022-11-18T01:40:41.899Z,97901.47
2022-11-18T01:43:17.843Z,97947.56
2022-11-18T01:45:47.308Z,97905.84
2022-11-18T01:48:20.744Z,97937.91
2022-11-18T01:51:03.600Z,97955.13
2022-11-18T01:53:34.317Z,97963.16
2022-11-18T01:56:08.104Z,97960.09
2022-11-18T01:58:39.276Z,97961.69
2022-11-18T02:01:07.593Z,97966.41
2022-11-18T02:03:35.539Z,97967.03
2022-11-18T02:06:04.923Z,97974.66
2022-11-18T02:08:32.708Z,97973.53
2022-11-18T02:10:59.352Z,97976.66
2022-11-18T02:13:26.116Z,97969.53
2022-11-18T02:16:02.693Z,97975.16
2022-11-18T02:19:01.786Z,97990.56
2022-11-18T02:21:52.701Z,97953.50
2022-11-18T02:24:22.338Z,97989.53
2022-11-18T02:27:04.691Z,97989.09
2022-11-18T02:29:49.954Z,97994.25
2022-11-18T02:32:24.476Z,98014.31
2022-11-18T02:35:09.376Z,98002.28
2022-11-18T02:37:52.581Z,98001.31
2022-11-18T02:40:27.917Z,98002.88
2022-11-18T02:43:06.603Z,97998.72
2022-11-18T02:45:34.926Z,97993.09
2022-11-18T02:48:08.415Z,97992.13
2022-11-18T02:50:38.005Z,97979.84
2022-11-18T02:53:07.560Z,97986.50
2022-11-18T02:55:36.137Z,97987.25
2022-11-18T02:58:04.678Z,97963.00
2022-11-18T03:00:32.771Z,98005.78
2022-11-18T03:03:00.265Z,97977.09
2022-11-18T03:05:33.232Z,98007.34
2022-11-18T03:08:08.586Z,98017.19
2022-11-18T03:10:43.047Z,97993.41
2022-11-18T03:13:32.184Z,98027.91
2022-11-18T03:16:12.282Z,98019.75
2022-11-18T03:19:21.425Z,98036.59
2022-11-18T03:21:59.343Z,98019.69
2022-11-18T03:24:32.615Z,98001.69
2022-11-18T03:27:07.840Z,98034.59
2022-11-18T03:29:39.324Z,98048.94
2022-11-18T03:32:12.764Z,98019.38
2022-11-18T03:34:47.339Z,98043.84
2022-11-18T03:37:16.832Z,98051.34
2022-11-18T03:39:50.308Z,98036.28
2022-11-18T03:42:25.143Z,98062.69
2022-11-18T03:44:56.750Z,98039.03
2022-11-18T03:47:33.510Z,98045.47
2022-11-18T03:50:14.060Z,98063.91
2022-11-18T03:52:42.824Z,98046.88
2022-11-18T03:55:15.500Z,98070.00
2022-11-18T03:58:05.161Z,98071.84
2022-11-18T04:00:37.931Z,98084.56
2022-11-18T04:03:04.636Z,98039.94
2022-11-18T04:05:36.660Z,98097.78
2022-11-18T04:08:07.772Z,98024.91
2022-11-18T04:10:52.326Z,98096.97
2022-11-18T04:13:24.500Z,98057.59
2022-11-18T04:15:51.637Z,98101.38
2022-11-18T04:18:18.358Z,98058.44
2022-11-18T04:20:45.189Z,98100.13
2022-11-18T04:23:12.200Z,98096.97
2022-11-18T04:25:38.887Z,98073.19
2022-11-18T04:28:06.951Z,98097.19
2022-11-18T04:30:33.843Z,98102.56
2022-11-18T04:33:00.567Z,98118.72
2022-11-18T04:35:27.583Z,98109.88
2022-11-18T04:37:54.566Z,98061.38
2022-11-18T04:40:21.608Z,98097.47
2022-11-18T04:42:48.280Z,98113.94
2022-11-18T04:45:14.960Z,98113.25
2022-11-18T04:47:41.624Z,98096.59
2022-11-18T04:50:08.627Z,98131.66
2022-11-18T04:52:35.288Z,98129.44
2022-11-18T04:55:01.958Z,98125.84
2022-11-18T04:57:28.615Z,98133.91
2022-11-18T04:59:55.300Z,98125.56
2022-11-18T05:02:21.936Z,98053.56
2022-11-18T05:04:49.141Z,98136.22
2022-11-18T05:07:16.355Z,98138.19
2022-11-18T05:09:43.423Z,98148.34
2022-11-18T05:12:34.635Z,98162.19
2022-11-18T05:15:01.363Z,98118.63
2022-11-18T05:17:28.433Z,98147.81
2022-11-18T05:19:55.184Z,98140.91
2022-11-18T05:22:21.875Z,98152.66
2022-11-18T05:24:49.173Z,98144.44
2022-11-18T05:27:16.039Z,98168.41
2022-11-18T05:29:43.424Z,98148.53
2022-11-18T05:32:10.079Z,98158.53
2022-11-18T05:34:36.759Z,98168.16
2022-11-18T05:37:03.428Z,98173.13
2022-11-18T05:39:30.134Z,98109.44
2022-11-18T05:42:15.204Z,98177.31
2022-11-18T05:44:41.895Z,98119.06
2022-11-18T05:47:08.595Z,98188.69
2022-11-18T05:49:35.595Z,98185.66
2022-11-18T05:52:02.359Z,98118.13
2022-11-18T05:54:29.244Z,98172.59
2022-11-18T05:56:55.938Z,98200.22
2022-11-18T05:59:22.727Z,98193.13
2022-11-18T06:02:18.509Z,98208.50
2022-11-18T06:04:53.175Z,98210.81
2022-11-18T06:07:32.352Z,98201.97
2022-11-18T06:10:05.118Z,98230.50
2022-11-18T06:12:39.062Z,98226.09
2022-11-18T06:15:09.412Z,98226.25
2022-11-18T06:17:46.963Z,98187.41
2022-11-18T06:20:13.647Z,98244.75
2022-11-18T06:22:46.084Z,98233.22
2022-11-18T06:25:13.704Z,98209.69
2022-11-18T06:27:41.065Z,98247.00
2022-11-18T06:30:08.571Z,98251.66
2022-11-18T06:32:35.200Z,98243.75
2022-11-18T06:35:01.840Z,98268.94
2022-11-18T06:37:28.552Z,98252.13
2022-11-18T06:39:55.202Z,98254.34
2022-11-18T06:42:40.621Z,98252.94
2022-11-18T06:45:07.759Z,98259.38
2022-11-18T06:47:34.466Z,98242.38
2022-11-18T06:50:01.108Z,98268.47
2022-11-18T06:52:27.742Z,98270.78
2022-11-18T06:54:54.412Z,98236.97
2022-11-18T06:57:21.016Z,98288.69
2022-11-18T06:59:47.672Z,98252.22
2022-11-18T07:02:14.406Z,98280.38
2022-11-18T07:04:41.375Z,98289.94
2022-11-18T07:07:08.488Z,98301.09
2022-11-18T07:09:36.096Z,98299.91
2022-11-18T07:12:03.404Z,98290.38
2022-11-18T07:14:30.965Z,98302.19
2022-11-18T07:16:57.686Z,98300.56
2022-11-18T07:19:24.394Z,98316.00
2022-11-18T07:21:51.060Z,98310.31
2022-11-18T07:24:17.740Z,98297.59
2022-11-18T07:26:44.553Z,98327.22
2022-11-18T07:29:11.234Z,98322.75
2022-11-18T07:31:39.664Z,98323.16
2022-11-18T07:34:07.204Z,98325.00
2022-11-18T07:36:35.921Z,98358.50
2022-11-18T07:39:06.059Z,98316.88
2022-11-18T07:41:33.994Z,98322.75
2022-11-18T07:44:02.642Z,98358.06
2022-11-18T07:46:36.756Z,98362.53
2022-11-18T07:49:08.895Z,98365.78
2022-11-18T07:51:38.135Z,98326.00
2022-11-18T07:54:12.322Z,98360.50
2022-11-18T07:56:39.568Z,98354.22
2022-11-18T07:59:06.503Z,98369.03
2022-11-18T08:01:33.355Z,98382.84
2022-11-18T08:04:12.177Z,98385.09
2022-11-18T08:06:39.705Z,98354.44
2022-11-18T08:09:07.751Z,98340.00
2022-11-18T08:11:34.614Z,98381.81
2022-11-18T08:14:01.700Z,98400.09
2022-11-18T08:16:28.386Z,98397.88
2022-11-18T08:18:55.035Z,98382.03
2022-11-18T08:21:22.979Z,98403.97
2022-11-18T08:23:55.115Z,98398.28
2022-11-18T08:26:22.468Z,98403.16
2022-11-18T08:28:49.284Z,98398.69
2022-11-18T08:31:19.197Z,98414.13
2022-11-18T08:33:46.438Z,98376.97
2022-11-18T08:36:17.158Z,98383.25
2022-11-18T08:38:44.359Z,98388.53
2022-11-18T08:41:13.766Z,98416.97
2022-11-18T08:43:40.629Z,98411.88
2022-11-18T08:46:07.643Z,98392.81
2022-11-18T08:48:34.337Z,98386.69
2022-11-18T08:51:01.717Z,98404.56
2022-11-18T08:53:28.418Z,98417.34
2022-11-18T08:55:59.563Z,98410.84
2022-11-18T08:58:26.941Z,98418.13
2022-11-18T09:00:54.351Z,98405.53
2022-11-18T09:03:21.224Z,98416.91
2022-11-18T09:05:47.887Z,98360.69
2022-11-18T09:08:15.641Z,98405.91
2022-11-18T09:10:42.692Z,98405.94
2022-11-18T09:13:38.713Z,98425.00
2022-11-18T09:15:58.756Z,98410.03
2022-11-18T09:18:25.544Z,98424.59
2022-11-18T09:21:03.901Z,98428.66
2022-11-18T09:23:32.430Z,98431.91
2022-11-18T09:26:03.894Z,98431.91
2022-11-18T09:28:30.684Z,98430.06
2022-11-18T09:30:57.660Z,98445.94
2022-11-18T09:33:24.490Z,98437.38
2022-11-18T09:35:51.182Z,98421.31
2022-11-18T09:38:17.982Z,98437.34
2022-11-18T09:41:06.478Z,98420.66
2022-11-18T09:44:06.164Z,98438.72
2022-11-18T09:47:10.538Z,98442.88
2022-11-18T09:49:40.448Z,98448.75
2022-11-18T09:52:12.901Z,98453.22
2022-11-18T09:54:40.072Z,98437.25
2022-11-18T09:57:26.129Z,98430.75
2022-11-18T09:59:53.391Z,98458.00
2022-11-18T10:02:31.278Z,98461.81
2022-11-18T10:05:15.076Z,98380.66
2022-11-18T10:07:56.074Z,98440.13
2022-11-18T10:10:35.110Z,98480.34
2022-11-18T10:13:50.861Z,98454.06
2022-11-18T10:16:35.433Z,98466.44
2022-11-18T10:19:17.003Z,98465.81
2022-11-18T10:21:53.867Z,98450.94
2022-11-18T10:24:27.345Z,98478.81
2022-11-18T10:26:56.661Z,98457.78
2022-11-18T10:29:23.931Z,98456.72
2022-11-18T10:31:59.694Z,98458.50
2022-11-18T10:34:30.233Z,98459.91
2022-11-18T10:37:01.137Z,98460.88
2022-11-18T10:39:28.402Z,98454.97
2022-11-18T10:42:04.675Z,98461.47
2022-11-18T10:44:32.878Z,98466.75
2022-11-18T10:47:24.383Z,98463.84
2022-11-18T10:49:52.888Z,98466.00
2022-11-18T10:52:20.384Z,98455.22
2022-11-18T10:55:06.583Z,98461.19
2022-11-18T10:57:39.078Z,98469.56
2022-11-18T11:00:06.617Z,98458.75
2022-11-18T11:02:39.023Z,98462.72
2022-11-18T11:05:23.380Z,98456.47
2022-11-18T11:08:36.257Z,98467.59
2022-11-18T11:11:04.309Z,98437.78
2022-11-18T11:13:32.471Z,98447.75
2022-11-18T11:16:03.423Z,98471.66
2022-11-18T11:18:42.699Z,98473.88
2022-11-18T11:21:16.840Z,98469.81
2022-11-18T11:23:44.365Z,98479.22
2022-11-18T11:29:48.695Z,98480.09
2022-11-18T11:32:56.990Z,98480.34
2022-11-18T11:35:30.400Z,98473.56
2022-11-18T11:38:20.448Z,98487.78
2022-11-18T11:40:53.104Z,98487.41
2022-11-18T11:43:26.459Z,98496.03
2022-11-18T11:46:30.831Z,98487.69
2022-11-18T11:49:18.108Z,98499.03
2022-11-18T11:51:53.864Z,98450.09
2022-11-18T11:54:39.000Z,98488.19
2022-11-18T11:57:20.407Z,98458.56
2022-11-18T12:00:03.202Z,98468.34
2022-11-18T12:02:44.904Z,98466.72
2022-11-18T12:05:43.032Z,98481.16
2022-11-18T12:08:25.850Z,98461.94
2022-11-18T12:10:52.840Z,98484.25
2022-11-18T12:13:39.240Z,98493.31
2022-11-18T12:16:23.326Z,98477.72
2022-11-18T12:19:02.870Z,98410.44
2022-11-18T12:21:45.518Z,98471.47
2022-11-18T12:24:17.989Z,98470.22
2022-11-18T12:26:46.476Z,98469.72
2022-11-18T12:29:19.377Z,98479.63
2022-11-18T12:31:48.888Z,98472.03
2022-11-18T12:34:44.266Z,98491.03
2022-11-18T12:37:26.426Z,98493.50
2022-11-18T12:39:55.979Z,98502.88
2022-11-18T12:43:07.232Z,98486.34
2022-11-18T12:45:49.097Z,98483.03
2022-11-18T12:48:35.799Z,98491.28
2022-11-18T12:51:30.921Z,98485.53
2022-11-18T12:53:57.843Z,98486.97
2022-11-18T12:56:27.759Z,98484.22
2022-11-18T12:58:57.009Z,98455.50
2022-11-18T13:01:35.152Z,98397.81
2022-11-18T13:04:15.705Z,98484.09
2022-11-18T13:06:43.371Z,98487.97
2022-11-18T13:09:20.439Z,98470.06
2022-11-18T13:12:11.938Z,98492.97
2022-11-18T13:15:02.126Z,98486.19
2022-11-18T13:17:48.970Z,98499.31
2022-11-18T13:20:35.925Z,98498.53
2022-11-18T13:23:33.678Z,98505.31
2022-11-18T13:26:07.030Z,98503.69
2022-11-18T13:28:47.899Z,98485.44
2022-11-18T13:31:32.701Z,98512.19
2022-11-18T13:34:04.220Z,98507.97
2022-11-18T13:36:32.774Z,98479.53
2022-11-18T13:39:05.790Z,98514.00
2022-11-18T13:41:35.348Z,98523.09
2022-11-18T13:44:17.235Z,98514.78
2022-11-18T13:46:47.929Z,98498.66
2022-11-18T13:49:21.036Z,98510.31
2022-11-18T13:51:48.252Z,98518.66
2022-11-18T13:54:22.181Z,98493.91
2022-11-18T13:56:48.949Z,98539.00
2022-11-18T13:59:20.042Z,98506.16
2022-11-18T14:01:52.725Z,98500.75
2022-11-18T14:04:20.827Z,98521.84
2022-11-18T14:06:48.278Z,98500.13
2022-11-18T14:09:28.937Z,98519.38
2022-11-18T14:12:02.942Z,98527.91
2022-11-18T14:14:37.520Z,98503.28
2022-11-18T14:17:26.865Z,98511.03
2022-11-18T14:19:56.348Z,98494.31
2022-11-18T14:22:25.700Z,98495.59
2022-11-18T14:24:56.896Z,98492.72
2022-11-18T14:27:41.829Z,98493.28
2022-11-18T14:30:41.760Z,98495.66
2022-11-18T14:33:24.123Z,98506.59
2022-11-18T14:35:52.381Z,98507.00
2022-11-18T14:41:45.352Z,98501.06
2022-11-18T14:44:13.465Z,98490.31
2022-11-18T14:46:43.464Z,98542.22
2022-11-18T14:49:13.988Z,98515.94
2022-11-18T14:51:40.729Z,98517.03
2022-11-18T14:54:07.498Z,98482.16
2022-11-18T14:56:35.085Z,98517.47
2022-11-18T14:59:01.840Z,98528.50
2022-11-18T15:01:31.087Z,98497.75
2022-11-18T15:03:58.309Z,98570.53
2022-11-18T15:06:25.026Z,98565.84
2022-11-18T15:08:53.212Z,98566.13
2022-11-18T15:11:20.487Z,98577.81
2022-11-18T15:13:47.686Z,98580.91
2022-11-18T15:16:17.734Z,98593.56
2022-11-18T15:18:47.128Z,98586.69
2022-11-18T15:21:14.468Z,98575.94
2022-11-18T15:23:41.533Z,98581.44
2022-11-18T15:26:27.934Z,98601.19
2022-11-18T15:28:56.574Z,98583.34
2022-11-18T15:31:24.805Z,98598.78
2022-11-18T15:33:52.350Z,98606.34
2022-11-18T15:36:21.504Z,98612.44
2022-11-18T15:38:48.812Z,98592.13
2022-11-18T15:41:21.417Z,98620.38
2022-11-18T15:43:49.050Z,98625.50
2022-11-18T15:46:19.163Z,98632.59
2022-11-18T15:48:46.357Z,98625.09
2022-11-18T15:51:13.346Z,98628.34
2022-11-18T15:53:40.608Z,98615.53
2022-11-18T15:56:15.091Z,98645.19
2022-11-18T15:58:42.009Z,98587.88
2022-11-18T16:01:08.829Z,98642.56
2022-11-18T16:03:35.508Z,98645.00
2022-11-18T16:06:02.215Z,98614.91
2022-11-18T16:08:30.031Z,98645.81
2022-11-18T16:11:16.160Z,98616.31
2022-11-18T16:13:43.080Z,98638.69
2022-11-18T16:16:23.230Z,98653.16
2022-11-18T16:18:49.970Z,98634.63
2022-11-18T16:21:16.634Z,98638.06
2022-11-18T16:23:43.323Z,98642.97
2022-11-18T16:26:09.989Z,98641.13
2022-11-18T16:28:36.663Z,98644.78
2022-11-18T16:31:21.715Z,98570.38
2022-11-18T16:33:48.386Z,98640.91
2022-11-18T16:36:15.169Z,98650.69
2022-11-18T16:38:42.805Z,98607.97
2022-11-18T16:41:28.053Z,98646.19
2022-11-18T16:43:54.767Z,98648.81
2022-11-18T16:46:21.400Z,98628.09
2022-11-18T16:48:48.068Z,98651.47
2022-11-18T16:51:23.952Z,98632.97
2022-11-18T16:53:55.793Z,98651.91
2022-11-18T16:56:28.375Z,98650.66
2022-11-18T16:59:00.991Z,98655.53
2022-11-18T17:01:29.836Z,98619.16
2022-11-18T17:03:57.772Z,98656.75
2022-11-18T17:06:25.287Z,98663.47
2022-11-18T17:08:52.698Z,98675.09
2022-11-18T17:11:19.947Z,98662.06
2022-11-18T17:13:46.693Z,98637.69
2022-11-18T17:16:16.292Z,98670.44
2022-11-18T17:18:43.582Z,98667.00
2022-11-18T17:21:17.435Z,98678.38
2022-11-18T17:23:48.896Z,98670.25
2022-11-18T17:26:19.248Z,98678.38
2022-11-18T17:28:46.048Z,98663.72
2022-11-18T17:31:16.089Z,98693.44
2022-11-18T17:33:43.519Z,98651.72
2022-11-18T17:36:13.404Z,98648.28
2022-11-18T17:38:42.655Z,98671.25
2022-11-18T17:41:31.046Z,98689.16
2022-11-18T17:43:58.580Z,98649.50
2022-11-18T17:46:25.599Z,98684.28
2022-11-18T17:48:56.273Z,98691.19
2022-11-18T17:51:23.821Z,98605.16
2022-11-18T17:53:50.825Z,98692.41
2022-11-18T17:56:18.227Z,98688.13
2022-11-18T17:58:45.525Z,98690.16
2022-11-18T18:01:14.513Z,98698.72
2022-11-18T18:03:41.722Z,98689.34
2022-11-18T18:06:10.799Z,98687.69
2022-11-18T18:08:37.934Z,98701.16
2022-11-18T18:11:06.191Z,98676.94
2022-11-18T18:13:59.080Z,98634.00
2022-11-18T18:16:26.614Z,98690.56
2022-11-18T18:18:53.642Z,98713.13
2022-11-18T18:21:20.409Z,98686.25
2022-11-18T18:23:47.446Z,98715.13
2022-11-18T18:26:14.488Z,98656.66
2022-11-18T18:28:41.148Z,98734.41
2022-11-18T18:31:10.595Z,98719.75
2022-11-18T18:33:39.889Z,98738.69
2022-11-18T18:36:09.517Z,98659.50
2022-11-18T18:38:38.043Z,98727.31
2022-11-18T18:41:08.381Z,98721.19
2022-11-18T18:43:35.531Z,98718.56
2022-11-18T18:46:44.316Z,98724.50
2022-11-18T18:49:13.709Z,98704.94
2022-11-18T18:51:40.313Z,98725.09
2022-11-18T18:54:09.848Z,98672.94
2022-11-18T18:56:38.435Z,98732.16
2022-11-18T18:59:05.990Z,98739.25
2022-11-18T19:01:33.695Z,98701.81
2022-11-18T19:04:03.109Z,98746.75
2022-11-18T19:09:25.433Z,98754.44
2022-11-18T19:12:11.672Z,98747.00
2022-11-18T19:14:38.523Z,98742.53
2022-11-18T19:17:10.720Z,98726.81
2022-11-18T19:19:58.846Z,98744.94
2022-11-18T19:22:25.550Z,98739.81
2022-11-18T19:24:53.194Z,98751.84
2022-11-18T19:27:20.470Z,98724.38
2022-11-18T19:29:47.557Z,98752.66
2022-11-18T19:32:14.859Z,98743.28
2022-11-18T19:34:41.813Z,98751.81
2022-11-18T19:37:08.595Z,98722.91
2022-11-18T19:39:35.423Z,98760.34
2022-11-18T19:42:02.234Z,98744.63
2022-11-18T19:44:29.058Z,98749.34
2022-11-18T19:46:55.733Z,98735.94
2022-11-18T19:49:22.721Z,98763.44
2022-11-18T19:51:49.840Z,98755.97
2022-11-18T19:54:16.618Z,98762.28
2022-11-18T19:56:43.362Z,98616.41
2022-11-18T19:59:12.405Z,98746.19
2022-11-18T20:01:39.372Z,98717.22
2022-11-18T20:04:06.103Z,98774.25
2022-11-18T20:06:34.980Z,98740.88
2022-11-18T20:09:02.702Z,98778.75
2022-11-18T20:11:29.554Z,98790.19
2022-11-18T20:13:56.651Z,98782.06
2022-11-18T20:16:25.351Z,98768.25
2022-11-18T20:18:56.739Z,98755.63
2022-11-18T20:21:25.052Z,98771.31
2022-11-18T20:24:01.152Z,98787.38
2022-11-18T20:26:31.552Z,98769.66
2022-11-18T20:28:58.383Z,98774.94
2022-11-18T20:31:26.113Z,98785.34
2022-11-18T20:33:54.350Z,98780.44
2022-11-18T20:36:23.706Z,98786.91
2022-11-18T20:38:52.859Z,98783.81
2022-11-18T20:41:20.874Z,98798.84
2022-11-18T20:43:50.871Z,98790.31
2022-11-18T20:46:21.070Z,98765.63
2022-11-18T20:48:49.150Z,98771.72
2022-11-18T20:51:27.481Z,98777.84
2022-11-18T20:53:55.775Z,98792.09
2022-11-18T20:56:24.798Z,98794.31
2022-11-18T20:58:51.757Z,98661.28
2022-11-18T21:01:21.725Z,98795.38
2022-11-18T21:03:54.117Z,98799.84
2022-11-18T21:06:22.566Z,98785.94
2022-11-18T21:08:53.746Z,98797.19
2022-11-18T21:11:20.551Z,98809.66
2022-11-18T21:14:05.533Z,98801.16
2022-11-18T21:16:32.239Z,98781.41
2022-11-18T21:18:58.918Z,98788.13
2022-11-18T21:21:44.550Z,98792.22
2022-11-18T21:24:43.529Z,98782.47
2022-11-18T21:27:10.198Z,98776.34
2022-11-18T21:29:36.906Z,98757.19
2022-11-18T21:32:03.739Z,98793.41
2022-11-18T21:34:30.756Z,98767.56
2022-11-18T21:36:58.114Z,98706.06
2022-11-18T21:39:25.495Z,98794.03
2022-11-18T21:41:56.313Z,98783.56
2022-11-18T21:44:24.006Z,98797.25
2022-11-18T21:46:50.914Z,98798.03
2022-11-18T21:49:17.875Z,98793.47
2022-11-18T21:51:45.249Z,98803.44
2022-11-18T21:54:12.898Z,98806.88
2022-11-18T21:56:39.546Z,98809.34
2022-11-18T21:59:07.510Z,98814.19
2022-11-18T22:01:34.313Z,98808.28
2022-11-18T22:04:03.496Z,98788.72
2022-11-18T22:06:32.718Z,98819.28
2022-11-18T22:09:00.351Z,98794.25
2022-11-18T22:11:28.099Z,98783.78
2022-11-18T22:13:54.916Z,98785.03
2022-11-18T22:16:23.565Z,98808.63
2022-11-18T22:18:57.328Z,98821.09
2022-11-18T22:21:26.911Z,98810.59
2022-11-18T22:23:58.347Z,98818.56
2022-11-18T22:26:25.321Z,98820.22
2022-11-18T22:28:53.545Z,98817.72
2022-11-18T22:31:22.335Z,98821.78
2022-11-18T22:33:50.867Z,98798.13
2022-11-18T22:36:19.602Z,98830.03
2022-11-18T22:38:46.612Z,98824.34
2022-11-18T22:41:32.562Z,98824.53
2022-11-18T22:44:04.068Z,98811.91
2022-11-18T22:46:35.025Z,98825.81
2022-11-18T22:49:01.965Z,98827.84
2022-11-18T22:51:28.781Z,98810.28
2022-11-18T22:54:15.866Z,98812.16
2022-11-18T22:56:42.401Z,98823.53
2022-11-18T22:59:10.415Z,98809.06
2022-11-18T23:01:37.082Z,98758.44
2022-11-18T23:04:03.859Z,98773.09
2022-11-18T23:06:30.534Z,98834.47
2022-11-18T23:08:57.169Z,98811.41
2022-11-18T23:11:42.363Z,98826.84
2022-11-18T23:14:10.275Z,98840.66
2022-11-18T23:16:39.882Z,98822.19
2022-11-18T23:19:25.546Z,98832.13
2022-11-18T23:21:52.159Z,98822.56
2022-11-18T23:24:19.104Z,98846.22
2022-11-18T23:26:46.044Z,98836.47
2022-11-18T23:29:14.016Z,98848.44
2022-11-18T23:31:45.157Z,98816.47
2022-11-18T23:34:14.045Z,98828.94
2022-11-18T23:36:40.889Z,98814.63
2022-11-18T23:39:07.673Z,98837.38
2022-11-18T23:41:34.606Z,98832.00
2022-11-18T23:44:01.544Z,98828.03
2022-11-18T23:46:28.310Z,98829.31
2022-11-18T23:48:54.952Z,98835.50
2022-11-18T23:51:23.160Z,98835.00
2022-11-18T23:53:55.244Z,98827.97
2022-11-18T23:56:24.155Z,98848.31
2022-11-18T23:58:52.602Z,98832.09
